Johnson, Arizona
Current Conditions -  °F | °C
As of 2:55 AM on Thursday 29 Jan 2015 (Local Time) from KFHU Reporting Station
Broken Clouds Broken Clouds  
Wind Chill: 52°   Ceiling: 20000
Heat Index: 52°   Visibility: 10mi
Dew Point: 37°   Wind: 0mph
Humidity: 58%   Direction: NA
Pressure: 30.18"   Gusts: NA
Location:  32.0129°N, 110.105°W
Report Text: KFHU 290955Z 00000KT 10SM FEW110 BKN200 11/03 A3018 RMK SLP181
Loading
Personal Weather Stations






























Interactive Weather Map New forecast layout! Learn more

10-Day Weather Forecast

Advertisements
Track Severe Weather on mobile